createdAt,value
2022-09-15T00:00:47.194Z,87.60
2022-09-15T00:03:13.996Z,87.50
2022-09-15T00:05:40.780Z,87.90
2022-09-15T00:08:07.578Z,87.50
2022-09-15T00:10:34.653Z,86.20
2022-09-15T00:13:01.389Z,86.00
2022-09-15T00:15:28.174Z,86.10
2022-09-15T00:17:54.936Z,87.60
2022-09-15T00:20:21.802Z,88.10
2022-09-15T00:22:48.984Z,90.10
2022-09-15T00:25:15.772Z,89.00
2022-09-15T00:27:42.524Z,89.80
2022-09-15T00:30:09.518Z,89.60
2022-09-15T00:32:36.282Z,89.20
2022-09-15T00:35:03.075Z,89.20
2022-09-15T00:37:29.814Z,89.30
2022-09-15T00:39:56.662Z,89.60
2022-09-15T00:42:23.512Z,89.90
2022-09-15T00:44:53.371Z,89.90
2022-09-15T00:47:21.098Z,89.30
2022-09-15T00:49:48.894Z,89.60
2022-09-15T00:52:17.375Z,90.30
2022-09-15T00:54:49.096Z,90.10
2022-09-15T00:57:17.255Z,90.20
2022-09-15T00:59:44.020Z,90.20
2022-09-15T01:02:21.607Z,90.00
2022-09-15T01:04:49.070Z,90.30
2022-09-15T01:07:16.854Z,90.80
2022-09-15T01:09:49.612Z,91.30
2022-09-15T01:12:16.533Z,91.30
2022-09-15T01:14:43.369Z,91.40
2022-09-15T01:20:32.256Z,91.60
2022-09-15T01:23:21.842Z,91.80
2022-09-15T01:25:58.623Z,91.90
2022-09-15T01:28:30.207Z,91.80
2022-09-15T01:31:20.130Z,91.60
2022-09-15T01:33:52.562Z,91.60
2022-09-15T01:36:20.243Z,92.00
2022-09-15T01:38:47.413Z,92.00
2022-09-15T01:41:18.122Z,92.00
2022-09-15T01:43:51.831Z,91.70
2022-09-15T01:46:19.236Z,91.90
2022-09-15T01:48:45.989Z,92.60
2022-09-15T01:51:13.051Z,93.20
2022-09-15T01:53:39.798Z,94.10
2022-09-15T01:56:07.285Z,94.30
2022-09-15T01:58:34.184Z,94.30
2022-09-15T02:01:03.135Z,94.20
2022-09-15T02:03:33.773Z,94.60
2022-09-15T02:06:04.452Z,94.80
2022-09-15T02:08:34.368Z,94.60
2022-09-15T02:11:07.299Z,94.20
2022-09-15T02:14:03.792Z,94.50
2022-09-15T02:16:32.685Z,94.50
2022-09-15T02:19:35.009Z,94.20
2022-09-15T02:22:07.891Z,94.30
2022-09-15T02:24:37.326Z,94.60
2022-09-15T02:27:04.405Z,95.50
2022-09-15T02:29:31.892Z,95.60
2022-09-15T02:32:03.742Z,95.50
2022-09-15T02:34:34.956Z,95.50
2022-09-15T02:37:01.707Z,95.70
2022-09-15T02:39:30.683Z,96.10
2022-09-15T02:41:57.616Z,96.20
2022-09-15T02:44:24.365Z,96.60
2022-09-15T02:46:51.509Z,96.50
2022-09-15T02:49:20.193Z,96.70
2022-09-15T02:51:46.944Z,96.60
2022-09-15T02:54:13.888Z,96.60
2022-09-15T02:56:41.140Z,97.00
2022-09-15T02:59:07.918Z,97.40
2022-09-15T03:01:35.032Z,97.90
2022-09-15T03:04:02.404Z,98.50
2022-09-15T03:06:34.431Z,98.80
2022-09-15T03:09:02.458Z,98.80
2022-09-15T03:11:29.820Z,98.70
2022-09-15T03:13:57.290Z,98.40
2022-09-15T03:16:24.274Z,98.90
2022-09-15T03:18:51.055Z,98.90
2022-09-15T03:21:18.636Z,98.70
2022-09-15T03:23:45.648Z,99.00
2022-09-15T03:26:12.526Z,98.90
2022-09-15T03:28:39.790Z,98.80
2022-09-15T03:31:07.045Z,98.80
2022-09-15T03:33:34.007Z,99.50
2022-09-15T03:36:00.905Z,99.60
2022-09-15T03:38:27.628Z,99.60
2022-09-15T03:40:58.375Z,99.60
2022-09-15T03:43:25.765Z,99.50
2022-09-15T03:45:52.788Z,99.90
2022-09-15T03:48:19.633Z,99.90
2022-09-15T03:50:46.396Z,99.90
2022-09-15T03:53:13.143Z,99.90
2022-09-15T03:55:39.949Z,99.60
2022-09-15T03:58:06.672Z,99.20
2022-09-15T04:00:34.250Z,98.80
2022-09-15T04:03:01.029Z,99.20
2022-09-15T04:05:27.782Z,99.40
2022-09-15T04:07:54.604Z,99.30
2022-09-15T04:10:23.340Z,99.20
2022-09-15T04:12:51.570Z,98.20
2022-09-15T04:15:18.877Z,97.70
2022-09-15T04:17:45.857Z,97.70
2022-09-15T04:20:12.751Z,97.30
2022-09-15T04:22:39.495Z,97.90
2022-09-15T04:25:06.508Z,97.90
2022-09-15T04:27:35.725Z,97.80
2022-09-15T04:30:02.501Z,97.30
2022-09-15T04:32:29.277Z,97.20
2022-09-15T04:34:56.072Z,96.90
2022-09-15T04:37:23.180Z,96.90
2022-09-15T04:39:49.984Z,96.60
2022-09-15T04:42:16.778Z,96.20
2022-09-15T04:44:43.521Z,96.10
2022-09-15T04:47:10.313Z,96.00
2022-09-15T04:49:37.088Z,95.40
2022-09-15T04:52:06.663Z,94.90
2022-09-15T04:54:36.011Z,95.50
2022-09-15T04:57:02.972Z,93.70
2022-09-15T04:59:29.721Z,93.40
2022-09-15T05:01:56.563Z,92.70
2022-09-15T05:04:23.396Z,92.40
2022-09-15T05:06:50.151Z,91.80
2022-09-15T05:09:16.933Z,90.90
2022-09-15T05:11:43.674Z,90.70
2022-09-15T05:14:10.820Z,90.40
2022-09-15T05:16:37.702Z,90.30
2022-09-15T05:19:04.843Z,90.40
2022-09-15T05:21:31.603Z,89.70
2022-09-15T05:23:58.406Z,89.30
2022-09-15T05:26:25.911Z,90.10
2022-09-15T05:28:52.825Z,90.70
2022-09-15T05:31:19.698Z,92.10
2022-09-15T05:33:46.833Z,92.20
2022-09-15T05:36:17.499Z,92.80
2022-09-15T05:38:44.385Z,93.00
2022-09-15T05:41:11.602Z,93.30
2022-09-15T05:43:38.741Z,93.60
2022-09-15T05:46:05.771Z,93.30
2022-09-15T05:48:32.775Z,93.30
2022-09-15T05:50:59.569Z,93.30
2022-09-15T05:53:26.391Z,93.50
2022-09-15T05:55:56.893Z,94.10
2022-09-15T05:58:23.863Z,94.30
2022-09-15T06:00:50.795Z,93.90
2022-09-15T06:03:17.699Z,94.20
2022-09-15T06:05:44.591Z,94.10
2022-09-15T06:08:11.322Z,94.90
2022-09-15T06:10:38.736Z,95.80
2022-09-15T06:13:05.550Z,96.50
2022-09-15T06:15:32.466Z,96.50
2022-09-15T06:17:59.219Z,96.60
2022-09-15T06:20:25.989Z,96.60
2022-09-15T06:22:52.976Z,97.00
2022-09-15T06:25:19.736Z,97.30
2022-09-15T06:27:48.534Z,97.90
2022-09-15T06:30:15.374Z,98.60
2022-09-15T06:32:47.407Z,98.60
2022-09-15T06:35:15.327Z,99.40
2022-09-15T06:37:42.071Z,99.90
2022-09-15T06:40:09.062Z,99.90
2022-09-15T06:42:35.846Z,99.90
2022-09-15T06:45:03.094Z,99.90
2022-09-15T06:47:34.089Z,99.90
2022-09-15T06:50:01.230Z,99.90
2022-09-15T06:52:28.133Z,99.90
2022-09-15T06:54:55.051Z,99.90
2022-09-15T06:57:21.791Z,99.90
2022-09-15T06:59:48.606Z,99.90
2022-09-15T07:02:15.560Z,99.90
2022-09-15T07:04:42.391Z,99.90
2022-09-15T07:07:09.274Z,99.90
2022-09-15T07:09:38.829Z,99.90
2022-09-15T07:12:08.235Z,99.90
2022-09-15T07:14:34.962Z,99.90
2022-09-15T07:17:01.834Z,99.90
2022-09-15T07:19:28.670Z,99.90
2022-09-15T07:21:55.398Z,99.90
2022-09-15T07:24:22.175Z,99.90
2022-09-15T07:26:48.962Z,99.90
2022-09-15T07:29:15.708Z,99.90
2022-09-15T07:31:42.506Z,99.90
2022-09-15T07:34:09.398Z,99.90
2022-09-15T07:36:36.261Z,99.90
2022-09-15T07:39:03.196Z,99.90
2022-09-15T07:41:30.307Z,99.90
2022-09-15T07:43:57.764Z,99.90
2022-09-15T07:46:24.696Z,99.90
2022-09-15T07:48:53.150Z,99.90
2022-09-15T07:51:20.172Z,99.90
2022-09-15T07:53:47.453Z,99.90
2022-09-15T07:56:14.298Z,99.90
2022-09-15T07:58:41.038Z,99.90
2022-09-15T08:01:08.284Z,99.90
2022-09-15T08:03:35.129Z,99.90
2022-09-15T08:06:02.262Z,99.90
2022-09-15T08:08:29.500Z,99.90
2022-09-15T08:10:56.284Z,99.90
2022-09-15T08:13:23.223Z,99.90
2022-09-15T08:15:50.871Z,99.90
2022-09-15T08:18:17.787Z,99.90
2022-09-15T08:20:44.580Z,99.90
2022-09-15T08:23:11.465Z,99.90
2022-09-15T08:25:38.786Z,99.90
2022-09-15T08:28:05.527Z,99.90
2022-09-15T08:30:32.337Z,99.90
2022-09-15T08:32:59.120Z,99.90
2022-09-15T08:35:25.844Z,99.90
2022-09-15T08:37:53.543Z,99.90
2022-09-15T08:40:21.801Z,99.90
2022-09-15T08:42:48.790Z,99.90
2022-09-15T08:45:42.050Z,99.90
2022-09-15T08:48:08.851Z,99.60
2022-09-15T08:50:38.903Z,99.70
2022-09-15T08:53:13.087Z,99.90
2022-09-15T08:55:43.223Z,99.90
2022-09-15T08:58:19.933Z,99.90
2022-09-15T09:00:47.411Z,99.90
2022-09-15T09:03:33.169Z,99.90
2022-09-15T09:06:05.816Z,99.90
2022-09-15T09:08:51.658Z,98.70
2022-09-15T09:11:27.739Z,98.10
2022-09-15T09:14:00.780Z,97.60
2022-09-15T09:16:27.537Z,97.90
2022-09-15T09:19:00.535Z,97.10
2022-09-15T09:21:30.144Z,97.90
2022-09-15T09:24:06.785Z,96.70
2022-09-15T09:26:35.062Z,96.30
2022-09-15T09:29:12.699Z,96.00
2022-09-15T09:31:39.882Z,96.80
2022-09-15T09:34:25.377Z,97.20
2022-09-15T09:36:57.492Z,96.80
2022-09-15T09:41:51.408Z,96.60
2022-09-15T09:44:19.231Z,96.70
2022-09-15T09:46:47.524Z,96.60
2022-09-15T09:49:16.944Z,96.80
2022-09-15T09:51:51.892Z,96.20
2022-09-15T09:54:20.865Z,96.30
2022-09-15T09:56:48.390Z,96.50
2022-09-15T09:59:31.609Z,96.60
2022-09-15T10:02:10.477Z,96.30
2022-09-15T10:04:40.422Z,96.40
2022-09-15T10:07:07.277Z,96.00
2022-09-15T10:09:34.181Z,95.40
2022-09-15T10:12:01.455Z,95.70
2022-09-15T10:14:30.217Z,95.10
2022-09-15T10:16:57.005Z,95.10
2022-09-15T10:19:24.593Z,95.50
2022-09-15T10:21:51.320Z,95.20
2022-09-15T10:24:26.942Z,94.50
2022-09-15T10:27:05.772Z,94.40
2022-09-15T10:29:42.233Z,94.00
2022-09-15T10:32:16.111Z,93.90
2022-09-15T10:34:44.125Z,92.60
2022-09-15T10:37:27.702Z,92.50
2022-09-15T10:39:58.803Z,93.30
2022-09-15T10:42:29.099Z,92.10
2022-09-15T10:44:55.913Z,92.50
2022-09-15T10:47:35.054Z,92.60
2022-09-15T10:50:21.546Z,92.70
2022-09-15T10:53:00.174Z,92.50
2022-09-15T10:55:51.216Z,91.90
2022-09-15T10:58:24.720Z,92.30
2022-09-15T11:00:55.454Z,92.50
2022-09-15T11:03:31.160Z,91.90
2022-09-15T11:05:57.885Z,91.10
2022-09-15T11:08:42.774Z,90.40
2022-09-15T11:11:22.783Z,87.70
2022-09-15T11:13:56.912Z,91.40
2022-09-15T11:16:29.415Z,91.70
2022-09-15T11:19:15.129Z,91.90
2022-09-15T11:21:48.010Z,91.10
2022-09-15T11:24:26.264Z,90.80
2022-09-15T11:26:55.139Z,90.60
2022-09-15T11:29:44.954Z,91.00
2022-09-15T11:32:12.376Z,91.50
2022-09-15T11:34:40.424Z,90.20
2022-09-15T11:37:10.031Z,88.80
2022-09-15T11:39:39.046Z,85.60
2022-09-15T11:42:13.903Z,83.80
2022-09-15T11:44:41.560Z,81.70
2022-09-15T11:47:13.895Z,79.00
2022-09-15T11:49:46.774Z,79.70
2022-09-15T11:52:33.797Z,78.00
2022-09-15T11:55:19.299Z,77.30
2022-09-15T11:57:47.992Z,75.20
2022-09-15T12:00:15.009Z,75.40
2022-09-15T12:03:02.098Z,74.90
2022-09-15T12:05:33.193Z,74.50
2022-09-15T12:08:02.139Z,75.50
2022-09-15T12:10:34.138Z,74.60
2022-09-15T12:13:00.915Z,76.40
2022-09-15T12:15:27.727Z,75.30
2022-09-15T12:17:58.197Z,73.60
2022-09-15T12:20:25.846Z,74.10
2022-09-15T12:23:18.866Z,73.90
2022-09-15T12:25:51.713Z,73.80
2022-09-15T12:28:21.602Z,71.80
2022-09-15T12:30:48.521Z,72.70
2022-09-15T12:33:33.845Z,71.40
2022-09-15T12:36:19.158Z,72.00
2022-09-15T12:38:49.496Z,71.70
2022-09-15T12:41:16.256Z,71.70
2022-09-15T12:43:46.051Z,71.80
2022-09-15T12:46:12.892Z,70.60
2022-09-15T12:48:46.758Z,70.80
2022-09-15T12:51:21.905Z,70.30
2022-09-15T12:53:58.723Z,69.00
2022-09-15T12:56:29.437Z,68.10
2022-09-15T12:58:56.360Z,68.90
2022-09-15T13:01:23.339Z,69.50
2022-09-15T13:03:50.216Z,69.40
2022-09-15T13:06:21.092Z,70.30
2022-09-15T13:08:48.856Z,71.10
2022-09-15T13:11:22.963Z,71.60
2022-09-15T13:14:08.007Z,72.20
2022-09-15T13:16:37.591Z,73.40
2022-09-15T13:19:09.049Z,74.20
2022-09-15T13:21:36.436Z,74.70
2022-09-15T13:24:03.470Z,75.30
2022-09-15T13:26:30.457Z,74.60
2022-09-15T13:28:57.705Z,75.40
2022-09-15T13:31:33.335Z,76.00
2022-09-15T13:39:37.082Z,75.70
2022-09-15T13:42:22.583Z,76.00
2022-09-15T13:44:52.179Z,75.70
2022-09-15T13:47:38.237Z,76.00
2022-09-15T13:50:19.768Z,75.70
2022-09-15T13:52:49.268Z,75.70
2022-09-15T13:55:21.693Z,76.10
2022-09-15T14:00:53.988Z,76.10
2022-09-15T14:03:37.102Z,76.70
2022-09-15T14:06:14.042Z,76.80
2022-09-15T14:08:41.203Z,76.50
2022-09-15T14:11:09.288Z,77.00
2022-09-15T14:13:36.592Z,77.40
2022-09-15T14:16:06.370Z,76.70
2022-09-15T14:18:42.835Z,77.10
2022-09-15T14:21:16.490Z,77.50
2022-09-15T14:23:53.253Z,77.60
2022-09-15T14:26:20.897Z,77.90
2022-09-15T14:28:51.446Z,77.70
2022-09-15T14:31:18.304Z,77.60
2022-09-15T14:33:45.128Z,78.90
2022-09-15T14:36:15.474Z,78.20
2022-09-15T14:38:42.329Z,78.30
2022-09-15T14:41:15.937Z,78.20
2022-09-15T14:43:42.766Z,78.40
2022-09-15T14:46:12.038Z,78.70
2022-09-15T14:48:38.841Z,79.60
2022-09-15T14:51:09.006Z,78.90
2022-09-15T14:53:36.144Z,79.30
2022-09-15T14:56:08.216Z,79.00
2022-09-15T14:58:35.286Z,79.20
2022-09-15T15:01:02.318Z,79.90
2022-09-15T15:03:35.604Z,79.60
2022-09-15T15:06:27.675Z,79.50
2022-09-15T15:09:05.759Z,79.60
2022-09-15T15:11:32.790Z,79.20
2022-09-15T15:13:59.843Z,80.00
2022-09-15T15:16:27.801Z,80.20
2022-09-15T15:18:57.081Z,80.30
2022-09-15T15:21:40.895Z,80.80
2022-09-15T15:24:17.458Z,81.00
2022-09-15T15:26:45.056Z,81.00
2022-09-15T15:29:30.677Z,81.10
2022-09-15T15:32:04.516Z,81.80
2022-09-15T15:34:31.670Z,81.20
2022-09-15T15:37:04.155Z,81.40
2022-09-15T15:39:31.080Z,81.10
2022-09-15T15:42:02.123Z,81.80
2022-09-15T15:44:29.326Z,81.20
2022-09-15T15:46:57.216Z,81.60
2022-09-15T15:49:25.970Z,82.30
2022-09-15T15:51:56.453Z,81.90
2022-09-15T15:54:23.553Z,81.70
2022-09-15T15:56:50.481Z,82.60
2022-09-15T15:59:17.371Z,82.70
2022-09-15T16:01:44.332Z,83.10
2022-09-15T16:04:12.904Z,83.70
2022-09-15T16:06:39.850Z,84.10
2022-09-15T16:09:06.617Z,84.20
2022-09-15T16:11:33.400Z,85.10
2022-09-15T16:14:00.162Z,85.20
2022-09-15T16:16:27.431Z,84.40
2022-09-15T16:18:54.681Z,84.70
2022-09-15T16:21:29.064Z,85.50
2022-09-15T16:23:55.796Z,86.00
2022-09-15T16:26:23.242Z,86.20
2022-09-15T16:28:50.022Z,86.50
2022-09-15T16:31:16.942Z,87.00
2022-09-15T16:33:43.738Z,86.90
2022-09-15T16:36:13.903Z,86.60
2022-09-15T16:38:41.350Z,86.00
2022-09-15T16:41:29.203Z,86.90
2022-09-15T16:43:56.289Z,86.50
2022-09-15T16:46:29.260Z,87.10
2022-09-15T16:49:02.187Z,87.40
2022-09-15T16:51:31.593Z,88.10
2022-09-15T16:54:05.198Z,87.50
2022-09-15T16:56:31.984Z,87.60
2022-09-15T16:59:00.575Z,87.20
2022-09-15T17:01:34.234Z,87.10
2022-09-15T17:04:01.973Z,87.50
2022-09-15T17:06:35.267Z,87.60
2022-09-15T17:09:02.105Z,87.60
2022-09-15T17:11:29.076Z,87.70
2022-09-15T17:13:56.067Z,87.70
2022-09-15T17:16:25.134Z,87.40
2022-09-15T17:18:51.925Z,87.10
2022-09-15T17:21:19.868Z,87.00
2022-09-15T17:23:47.284Z,87.00
2022-09-15T17:26:19.657Z,87.00
2022-09-15T17:28:46.522Z,87.40
2022-09-15T17:31:14.241Z,87.40
2022-09-15T17:33:43.549Z,87.60
2022-09-15T17:36:10.717Z,88.00
2022-09-15T17:38:37.854Z,87.40
2022-09-15T17:41:04.712Z,87.00
2022-09-15T17:43:32.025Z,86.80
2022-09-15T17:45:58.963Z,87.60
2022-09-15T17:48:25.853Z,86.90
2022-09-15T17:50:52.655Z,87.30
2022-09-15T17:53:23.244Z,87.40
2022-09-15T17:55:50.314Z,88.10
2022-09-15T17:58:17.170Z,87.90
2022-09-15T18:00:46.288Z,88.00
2022-09-15T18:03:18.179Z,87.80
2022-09-15T18:05:45.066Z,87.10
2022-09-15T18:08:12.044Z,87.10
2022-09-15T18:10:38.921Z,87.40
2022-09-15T18:13:10.580Z,87.20
2022-09-15T18:15:38.299Z,87.30
2022-09-15T18:18:08.669Z,87.40
2022-09-15T18:20:36.706Z,88.10
2022-09-15T18:23:03.625Z,87.90
2022-09-15T18:25:34.691Z,88.30
2022-09-15T18:28:03.266Z,88.10
2022-09-15T18:30:34.436Z,88.00
2022-09-15T18:33:02.332Z,88.00
2022-09-15T18:35:29.548Z,87.90
2022-09-15T18:38:00.177Z,87.30
2022-09-15T18:40:28.877Z,87.30
2022-09-15T18:42:56.778Z,88.50
2022-09-15T18:45:23.752Z,87.30
2022-09-15T18:47:50.842Z,87.30
2022-09-15T18:50:18.384Z,87.20
2022-09-15T18:52:45.144Z,87.70
2022-09-15T18:55:16.386Z,87.40
2022-09-15T18:57:43.193Z,86.90
2022-09-15T19:00:13.259Z,87.10
2022-09-15T19:02:40.398Z,86.90
2022-09-15T19:05:07.463Z,87.50
2022-09-15T19:07:36.923Z,87.10
2022-09-15T19:10:04.404Z,87.40
2022-09-15T19:12:51.956Z,87.50
2022-09-15T19:15:24.505Z,87.80
2022-09-15T19:20:47.521Z,87.70
2022-09-15T19:23:26.663Z,88.50
2022-09-15T19:25:58.374Z,89.10
2022-09-15T19:28:28.004Z,89.50
2022-09-15T19:30:55.372Z,88.70
2022-09-15T19:33:25.077Z,89.40
2022-09-15T19:36:04.906Z,88.90
2022-09-15T19:38:38.206Z,89.10
2022-09-15T19:41:08.972Z,89.00
2022-09-15T19:43:35.949Z,89.50
2022-09-15T19:46:03.234Z,90.00
2022-09-15T19:48:30.032Z,89.50
2022-09-15T19:50:56.942Z,89.40
2022-09-15T19:53:23.666Z,89.70
2022-09-15T19:55:51.029Z,90.10
2022-09-15T19:58:18.166Z,90.50
2022-09-15T20:00:45.151Z,90.00
2022-09-15T20:03:11.939Z,88.10
2022-09-15T20:05:38.699Z,88.20
2022-09-15T20:08:05.415Z,89.20
2022-09-15T20:10:32.186Z,88.50
2022-09-15T20:12:58.825Z,88.70
2022-09-15T20:15:25.590Z,88.80
2022-09-15T20:17:52.339Z,88.70
2022-09-15T20:20:19.027Z,87.90
2022-09-15T20:22:46.368Z,91.60
2022-09-15T20:25:16.019Z,93.70
2022-09-15T20:27:43.311Z,96.30
2022-09-15T20:30:22.220Z,97.80
2022-09-15T20:32:48.899Z,99.50
2022-09-15T20:35:15.791Z,99.90
2022-09-15T20:37:42.529Z,99.90
2022-09-15T20:40:12.195Z,99.90
2022-09-15T20:42:38.988Z,99.90
2022-09-15T20:45:06.604Z,99.90
2022-09-15T20:47:33.456Z,99.90
2022-09-15T20:50:00.191Z,99.90
2022-09-15T20:52:30.166Z,99.90
2022-09-15T20:54:58.522Z,99.90
2022-09-15T20:57:25.319Z,99.90
2022-09-15T20:59:52.086Z,99.90
2022-09-15T21:02:18.901Z,99.90
2022-09-15T21:04:45.904Z,99.90
2022-09-15T21:07:12.657Z,99.90
2022-09-15T21:09:39.385Z,99.90
2022-09-15T21:12:06.605Z,99.90
2022-09-15T21:14:33.349Z,99.90
2022-09-15T21:17:00.419Z,99.90
2022-09-15T21:19:27.188Z,99.90
2022-09-15T21:21:54.596Z,99.90
2022-09-15T21:24:22.622Z,99.90
2022-09-15T21:27:07.810Z,99.90
2022-09-15T21:29:34.606Z,99.90
2022-09-15T21:32:02.313Z,99.90
2022-09-15T21:34:29.111Z,99.90
2022-09-15T21:36:56.246Z,99.90
2022-09-15T21:39:23.088Z,99.90
2022-09-15T21:41:50.193Z,99.90
2022-09-15T21:44:16.941Z,99.90
2022-09-15T21:46:45.013Z,99.90
2022-09-15T21:49:11.776Z,99.90
2022-09-15T21:51:38.503Z,99.90
2022-09-15T21:54:05.316Z,99.90
2022-09-15T21:56:32.083Z,99.90
2022-09-15T21:58:58.886Z,99.90
2022-09-15T22:01:26.654Z,99.90
2022-09-15T22:03:57.248Z,99.90
2022-09-15T22:06:27.796Z,99.90
2022-09-15T22:08:55.053Z,99.90
2022-09-15T22:11:22.352Z,99.90
2022-09-15T22:13:49.539Z,99.90
2022-09-15T22:16:17.384Z,99.90
2022-09-15T22:18:44.444Z,99.90
2022-09-15T22:21:15.281Z,99.90
2022-09-15T22:23:42.683Z,99.90
2022-09-15T22:26:11.039Z,99.90
2022-09-15T22:28:37.886Z,99.90
2022-09-15T22:31:05.497Z,99.90
2022-09-15T22:33:32.333Z,99.90
2022-09-15T22:35:59.119Z,99.90
2022-09-15T22:38:26.931Z,99.90
2022-09-15T22:40:53.769Z,99.90
2022-09-15T22:43:20.590Z,99.90
2022-09-15T22:45:48.184Z,99.90
2022-09-15T22:48:15.032Z,99.90
2022-09-15T22:50:43.587Z,99.90
2022-09-15T22:53:10.382Z,99.90
2022-09-15T22:55:37.139Z,99.90
2022-09-15T22:58:04.002Z,99.90
2022-09-15T23:00:32.639Z,99.90
2022-09-15T23:02:59.723Z,99.90
2022-09-15T23:05:26.474Z,99.90
2022-09-15T23:07:53.286Z,99.90
2022-09-15T23:10:20.079Z,99.90
2022-09-15T23:12:46.860Z,99.90
2022-09-15T23:15:13.975Z,99.90
2022-09-15T23:17:40.775Z,99.90
2022-09-15T23:20:07.623Z,99.90
2022-09-15T23:22:34.376Z,99.90
2022-09-15T23:25:01.145Z,99.90
2022-09-15T23:27:27.898Z,99.90
2022-09-15T23:29:54.712Z,99.90
2022-09-15T23:32:21.435Z,99.90
2022-09-15T23:34:49.007Z,99.90
2022-09-15T23:37:15.931Z,99.90
2022-09-15T23:39:42.818Z,99.90
2022-09-15T23:42:09.614Z,99.90
2022-09-15T23:44:36.336Z,99.90
2022-09-15T23:47:03.183Z,99.90
2022-09-15T23:49:29.977Z,99.90
2022-09-15T23:51:56.688Z,99.90
2022-09-15T23:54:23.464Z,99.90
2022-09-15T23:56:50.182Z,99.90
2022-09-15T23:59:16.900Z,99.90
